Choppington, United Kingdom
Current Conditions -  °F | °C
As of 12:20 AM on Saturday 22 Nov 2014 (Local Time) from EGNT Reporting Station
Light Rain Light Rain  
Wind Chill: 40°   Ceiling: 2000
Heat Index: 45°   Visibility: 4mi
Dew Point: 45°   Wind: 8mph
Humidity: 100%   Direction: 140°SE
Pressure: 29.83"   Gusts: NA
Location:  55.16°N, 1.6°W
Report Text: EGNT 220020Z 14007KT 100V180 7000 -RA BKN020 07/07 Q1010
Loading
Personal Weather Stations






























Interactive Weather Map New forecast layout! Learn more

10-Day Weather Forecast

Advertisements
Track Severe Weather on mobile